Terminal Aerodrome Forecast
Issued by NWS Charleston, WV

Current Version | Previous Version | Text Only | Print | Product List | Glossary Off
Versions: 1 2 3 4 5 6 7 8 9 10 11 12 13 14 15 16 17 18 19 20 21 22 23 24 25 26 27

000
FTUS41 KRLX 200500 RRA
TAFPKB
TAF
KPKB 200546Z 2006/2106 VRB03KT 5SM BR SCT025
     FM200900 00000KT 6SM SHRA BR VCTS OVC025CB
     FM201100 00000KT P6SM VCTS OVC025CB
     FM201300 VRB03KT P6SM SHRA VCTS OVC025CB
     FM201500 VRB03KT P6SM BKN025
     FM201700 23006KT P6SM VCTS BKN035CB
     FM210000 VRB03KT P6SM SCT050
     FM210200 00000KT 6SM BR BKN200
     FM210500 00000KT 1SM BR BKN001
      AMD NOT SKED=

USA.gov is the U.S. government's official web portal to all federal, state and local government web resources and services.